Time;durP1;ratioP1;P1;durP2;ratioP2;P2;SDS_P1;SDS_P2;PMS_P1;PMS_P2;Temp;Humidity;BMP_temperature;BMP_pressure;BME280_temperature;BME280_humidity;BME280_pressure;Samples;Min_cycle;Max_cycle;Signal;HPM_P1;HPM_P2
2021/09/06 00:01:58;;;;;;;8.07;4.35;;;12.10;63.90;;;;;;5136681;27;20118;-33
2021/09/06 00:04:24;;;;;;;8.82;4.40;;;12.10;63.90;;;;;;5136576;27;20044;-33
2021/09/06 00:06:50;;;;;;;5.75;3.88;;;12.00;63.80;;;;;;5136712;28;20046;-33
2021/09/06 00:09:15;;;;;;;7.22;3.90;;;12.00;63.90;;;;;;5136969;28;20027;-33
2021/09/06 00:11:41;;;;;;;6.72;4.07;;;12.00;64.00;;;;;;5136257;28;20368;-33
2021/09/06 00:14:07;;;;;;;6.78;3.58;;;12.00;64.00;;;;;;5136904;28;20055;-33
2021/09/06 00:16:32;;;;;;;6.13;4.40;;;12.00;63.90;;;;;;5136602;28;20403;-33
2021/09/06 00:18:58;;;;;;;6.38;4.07;;;12.00;64.00;;;;;;5136931;28;20449;-33
2021/09/06 00:21:24;;;;;;;6.22;4.25;;;12.00;64.00;;;;;;5136681;28;20028;-33
2021/09/06 00:23:49;;;;;;;6.15;4.18;;;11.90;64.20;;;;;;5136396;28;20027;-33
2021/09/06 00:26:15;;;;;;;8.27;4.10;;;11.90;64.20;;;;;;5136652;28;20160;-34
2021/09/06 00:28:41;;;;;;;7.53;4.88;;;11.90;64.30;;;;;;5136758;28;20039;-33
2021/09/06 00:31:06;;;;;;;7.43;3.92;;;11.90;64.40;;;;;;5136290;28;20031;-33
2021/09/06 00:33:32;;;;;;;7.05;4.28;;;11.90;64.40;;;;;;5136548;28;20403;-33
2021/09/06 00:35:58;;;;;;;10.35;4.47;;;11.80;64.40;;;;;;5136390;28;20314;-33
2021/09/06 00:38:24;;;;;;;10.52;4.60;;;11.80;64.50;;;;;;5136882;28;20031;-33
2021/09/06 00:40:51;;;;;;;6.47;3.78;;;11.80;64.70;;;;;;5136527;28;20080;-33
2021/09/06 00:43:18;;;;;;;8.52;4.03;;;11.80;64.70;;;;;;5136897;28;20039;-33
2021/09/06 00:45:45;;;;;;;9.80;4.38;;;11.70;64.70;;;;;;5138742;27;20303;-33
2021/09/06 00:48:11;;;;;;;6.35;4.18;;;11.70;64.70;;;;;;5140769;27;20066;-33
2021/09/06 00:50:37;;;;;;;7.95;4.85;;;11.70;64.70;;;;;;5139716;27;20065;-33
2021/09/06 00:53:03;;;;;;;8.13;4.00;;;11.70;64.90;;;;;;5140510;27;20023;-33
2021/09/06 00:55:29;;;;;;;8.25;4.03;;;11.60;65.00;;;;;;5140082;27;20460;-33
2021/09/06 00:57:55;;;;;;;6.22;4.03;;;11.60;64.90;;;;;;5140686;27;20027;-33
2021/09/06 01:00:21;;;;;;;6.65;3.72;;;11.60;65.00;;;;;;5140084;27;20303;-33
2021/09/06 01:02:47;;;;;;;8.35;4.60;;;11.60;65.00;;;;;;5140337;27;20038;-33
2021/09/06 01:05:14;;;;;;;7.30;4.45;;;11.50;65.10;;;;;;5140071;27;20054;-33
2021/09/06 01:07:41;;;;;;;5.40;3.70;;;11.50;65.10;;;;;;5139968;27;20041;-33
2021/09/06 01:10:10;;;;;;;7.63;4.20;;;11.50;65.20;;;;;;5139900;27;20117;-33
2021/09/06 01:12:37;;;;;;;9.15;4.60;;;11.50;65.40;;;;;;5139921;27;20285;-33
2021/09/06 01:15:04;;;;;;;6.18;3.95;;;11.50;65.40;;;;;;5140330;27;20358;-33
2021/09/06 01:17:32;;;;;;;6.15;4.10;;;11.50;65.40;;;;;;5139944;27;20168;-33
2021/09/06 01:19:57;;;;;;;5.60;3.88;;;11.40;65.50;;;;;;5139897;27;20015;-33
2021/09/06 01:22:23;;;;;;;6.03;4.00;;;11.40;65.50;;;;;;5139658;27;20422;-33
2021/09/06 01:24:49;;;;;;;6.75;3.95;;;11.40;65.60;;;;;;5139499;27;20031;-33
2021/09/06 01:27:16;;;;;;;8.65;4.68;;;11.40;65.60;;;;;;5139671;27;20061;-33
2021/09/06 01:29:42;;;;;;;7.90;3.85;;;11.40;65.60;;;;;;5140130;27;20046;-33
2021/09/06 01:32:09;;;;;;;7.15;4.25;;;11.40;65.60;;;;;;5139562;27;20031;-33
2021/09/06 01:34:34;;;;;;;6.40;3.92;;;11.40;65.60;;;;;;5139555;27;20026;-33
2021/09/06 01:37:01;;;;;;;6.97;4.18;;;11.30;65.60;;;;;;5139665;27;20035;-33
2021/09/06 01:39:26;;;;;;;6.25;3.90;;;11.30;65.70;;;;;;5139648;27;20077;-33
2021/09/06 01:41:52;;;;;;;6.03;3.85;;;11.30;65.70;;;;;;5139233;27;20403;-33
2021/09/06 01:44:18;;;;;;;6.03;4.00;;;11.30;65.70;;;;;;5139161;27;20019;-33
2021/09/06 01:46:44;;;;;;;6.28;4.32;;;11.30;66.10;;;;;;5139123;27;20023;-34
2021/09/06 01:49:09;;;;;;;6.82;3.92;;;11.30;65.90;;;;;;5139320;27;20052;-33
2021/09/06 01:51:35;;;;;;;7.28;4.80;;;11.30;66.00;;;;;;5138799;27;20503;-33
2021/09/06 01:54:01;;;;;;;7.63;4.55;;;11.30;66.00;;;;;;5138846;27;20043;-33
2021/09/06 01:56:27;;;;;;;6.72;4.28;;;11.20;66.10;;;;;;5137828;27;20027;-33
2021/09/06 01:58:53;;;;;;;5.68;4.18;;;11.20;66.10;;;;;;5139091;27;20026;-33
2021/09/06 02:01:18;;;;;;;8.68;3.97;;;11.20;66.20;;;;;;5138688;27;20028;-33
2021/09/06 02:03:44;;;;;;;7.05;4.32;;;11.20;66.20;;;;;;5139336;27;20177;-33
2021/09/06 02:06:10;;;;;;;6.57;4.38;;;11.20;66.30;;;;;;5139047;27;20024;-33
2021/09/06 02:08:36;;;;;;;9.88;5.18;;;11.10;66.30;;;;;;5139102;27;20031;-33
2021/09/06 02:11:02;;;;;;;5.90;4.18;;;11.10;66.30;;;;;;5138722;27;20030;-33
2021/09/06 02:13:28;;;;;;;7.68;4.05;;;11.10;66.30;;;;;;5138922;27;20031;-33
2021/09/06 02:15:54;;;;;;;6.63;4.25;;;11.10;66.30;;;;;;5138507;27;20433;-33
2021/09/06 02:18:20;;;;;;;8.80;4.20;;;11.10;66.40;;;;;;5138984;27;20042;-33
2021/09/06 02:20:46;;;;;;;7.57;4.57;;;11.10;66.40;;;;;;5138661;27;20023;-33
2021/09/06 02:23:11;;;;;;;5.90;4.50;;;11.10;66.40;;;;;;5139035;27;20408;-33
2021/09/06 02:25:37;;;;;;;6.28;4.05;;;11.10;66.50;;;;;;5138062;27;20051;-33
2021/09/06 02:28:03;;;;;;;7.75;3.80;;;11.10;66.50;;;;;;5138829;27;20080;-33
2021/09/06 02:30:29;;;;;;;6.47;3.70;;;11.10;66.50;;;;;;5137941;27;20039;-33
2021/09/06 02:32:55;;;;;;;9.68;4.22;;;11.10;66.50;;;;;;5138603;27;20037;-33
2021/09/06 02:35:20;;;;;;;5.82;4.10;;;11.10;66.50;;;;;;5138459;27;20084;-33
2021/09/06 02:37:47;;;;;;;5.93;4.30;;;11.10;66.50;;;;;;5138493;27;20032;-33
2021/09/06 02:40:14;;;;;;;7.25;4.10;;;11.00;66.50;;;;;;5138136;27;20104;-33
2021/09/06 02:42:39;;;;;;;6.03;3.70;;;11.00;66.50;;;;;;5138026;27;20077;-33
2021/09/06 02:45:06;;;;;;;6.63;3.88;;;11.00;66.50;;;;;;5138104;27;20027;-33
2021/09/06 02:47:31;;;;;;;5.57;4.00;;;11.00;66.60;;;;;;5137682;27;20063;-33
2021/09/06 02:49:58;;;;;;;6.32;3.72;;;11.10;66.50;;;;;;5138189;27;20061;-33
2021/09/06 02:52:24;;;;;;;5.75;4.18;;;11.10;66.50;;;;;;5138039;27;20023;-33
2021/09/06 02:54:50;;;;;;;6.10;3.70;;;11.10;66.40;;;;;;5137710;27;20054;-33
2021/09/06 02:57:16;;;;;;;6.22;3.92;;;11.10;66.40;;;;;;5137722;27;20031;-33
2021/09/06 02:59:41;;;;;;;7.38;3.97;;;11.10;66.40;;;;;;5137873;27;20023;-33
2021/09/06 03:02:07;;;;;;;7.53;4.10;;;11.10;66.50;;;;;;5137777;27;20031;-33
2021/09/06 03:04:33;;;;;;;5.80;3.53;;;11.10;66.40;;;;;;5137639;27;20023;-33
2021/09/06 03:06:59;;;;;;;5.65;4.03;;;11.10;66.40;;;;;;5137920;27;20107;-33
2021/09/06 03:09:25;;;;;;;7.45;3.67;;;11.10;66.40;;;;;;5137485;27;20084;-33
2021/09/06 03:11:50;;;;;;;7.20;4.05;;;11.10;66.40;;;;;;5137466;27;20303;-33
2021/09/06 03:14:16;;;;;;;6.53;3.88;;;11.10;66.40;;;;;;5137627;27;20347;-33
2021/09/06 03:16:42;;;;;;;5.93;3.85;;;11.10;66.40;;;;;;5137279;27;20057;-33
2021/09/06 03:19:07;;;;;;;6.18;3.72;;;11.20;66.50;;;;;;5137745;27;20253;-33
2021/09/06 03:21:33;;;;;;;7.55;4.50;;;11.20;66.40;;;;;;5137259;27;20034;-33
2021/09/06 03:23:59;;;;;;;5.25;3.75;;;11.20;66.50;;;;;;5137285;27;20047;-32
2021/09/06 03:26:24;;;;;;;4.95;3.58;;;11.10;66.50;;;;;;5137080;27;20057;-33
2021/09/06 03:28:50;;;;;;;6.13;3.72;;;11.10;66.50;;;;;;5137316;27;20185;-33
2021/09/06 03:31:16;;;;;;;7.25;3.92;;;11.10;66.60;;;;;;5137188;27;20102;-33
2021/09/06 03:33:42;;;;;;;8.80;3.78;;;11.20;66.70;;;;;;5137659;27;20372;-33
2021/09/06 03:36:08;;;;;;;5.45;3.53;;;11.20;66.80;;;;;;5137021;27;20033;-34
2021/09/06 03:38:34;;;;;;;6.28;3.95;;;11.10;66.80;;;;;;5137291;27;20110;-33
2021/09/06 03:40:59;;;;;;;8.07;4.32;;;11.20;66.90;;;;;;5136906;27;20031;-33
2021/09/06 03:43:25;;;;;;;5.55;3.58;;;11.20;66.90;;;;;;5137454;27;20031;-33
2021/09/06 03:45:51;;;;;;;6.30;4.03;;;11.20;66.90;;;;;;5137019;27;20110;-33
2021/09/06 03:48:17;;;;;;;7.20;3.65;;;11.20;67.00;;;;;;5137236;27;20042;-34
2021/09/06 03:50:42;;;;;;;5.88;3.92;;;11.20;67.10;;;;;;5136341;27;20027;-32
2021/09/06 03:53:09;;;;;;;5.85;3.80;;;11.20;67.10;;;;;;5136447;27;20113;-33
2021/09/06 03:55:34;;;;;;;6.85;3.72;;;11.20;67.10;;;;;;5136513;27;20453;-33
2021/09/06 03:58:00;;;;;;;7.63;4.13;;;11.20;67.10;;;;;;5137058;27;20111;-33
2021/09/06 04:00:25;;;;;;;7.38;4.25;;;11.30;67.30;;;;;;5136722;27;20106;-33
2021/09/06 04:02:51;;;;;;;7.03;4.20;;;11.30;67.30;;;;;;5136978;27;20420;-33
2021/09/06 04:05:17;;;;;;;7.15;4.03;;;11.30;67.40;;;;;;5136758;27;20023;-33
2021/09/06 04:07:43;;;;;;;8.20;4.45;;;11.30;67.50;;;;;;5136694;27;20080;-32
2021/09/06 04:10:09;;;;;;;6.35;3.97;;;11.40;67.70;;;;;;5136624;28;20046;-33
2021/09/06 04:12:35;;;;;;;6.57;4.00;;;11.40;67.80;;;;;;5136577;28;20023;-33
2021/09/06 04:15:03;;;;;;;7.63;4.72;;;11.50;67.90;;;;;;5136620;28;20026;-33
2021/09/06 04:17:29;;;;;;;7.10;4.10;;;11.50;67.90;;;;;;5136601;28;20031;-33
2021/09/06 04:19:54;;;;;;;5.32;3.90;;;11.60;67.90;;;;;;5137371;27;20050;-33
2021/09/06 04:22:20;;;;;;;8.95;4.50;;;11.60;67.80;;;;;;5140706;27;20035;-33
2021/09/06 04:24:45;;;;;;;6.80;4.15;;;11.70;67.80;;;;;;5140496;27;20027;-33
2021/09/06 04:27:11;;;;;;;5.00;3.75;;;11.70;67.70;;;;;;5140638;27;20039;-33
2021/09/06 04:29:37;;;;;;;6.57;4.22;;;11.70;67.60;;;;;;5140553;27;20023;-33
2021/09/06 04:32:03;;;;;;;6.38;4.07;;;11.80;67.70;;;;;;5121928;27;20047;-33
2021/09/06 04:34:28;;;;;;;11.15;7.20;;;11.80;67.60;;;;;;5140635;27;20454;-33
2021/09/06 04:36:54;;;;;;;9.07;4.10;;;11.90;67.80;;;;;;5140371;27;20115;-33
2021/09/06 04:39:20;;;;;;;8.82;4.70;;;12.00;67.70;;;;;;5140474;27;20068;-33
2021/09/06 04:41:46;;;;;;;8.43;5.10;;;12.00;67.70;;;;;;5139978;27;20031;-33
2021/09/06 04:44:11;;;;;;;10.25;5.72;;;12.10;67.70;;;;;;5140392;27;20023;-33
2021/09/06 04:46:37;;;;;;;12.50;7.55;;;12.20;67.70;;;;;;5140060;27;20024;-33
2021/09/06 04:49:04;;;;;;;6.55;4.43;;;12.20;67.60;;;;;;5140062;27;20068;-33
2021/09/06 04:51:30;;;;;;;6.78;4.13;;;12.20;67.40;;;;;;5139451;27;20035;-33
2021/09/06 04:53:56;;;;;;;10.90;4.60;;;12.30;67.40;;;;;;5139817;27;20051;-33
2021/09/06 04:56:23;;;;;;;6.57;3.95;;;12.30;67.10;;;;;;5139705;27;20023;-33
2021/09/06 04:58:49;;;;;;;6.35;4.20;;;12.40;67.20;;;;;;5140230;27;20367;-33
2021/09/06 05:01:16;;;;;;;5.60;4.47;;;12.40;67.00;;;;;;5139967;27;20079;-33
2021/09/06 05:03:41;;;;;;;6.15;4.20;;;12.50;67.10;;;;;;5140142;27;20031;-33
2021/09/06 05:06:08;;;;;;;6.50;4.30;;;12.50;67.30;;;;;;5139883;27;20027;-33
2021/09/06 05:08:34;;;;;;;9.25;4.32;;;12.60;67.00;;;;;;5140098;27;20414;-33
2021/09/06 05:10:59;;;;;;;8.13;4.47;;;12.60;67.00;;;;;;5139536;27;20046;-33
2021/09/06 05:13:25;;;;;;;8.25;4.80;;;12.60;67.10;;;;;;5139924;27;20031;-33
2021/09/06 05:15:51;;;;;;;7.80;4.78;;;12.70;67.50;;;;;;5139216;27;20046;-33
2021/09/06 05:18:17;;;;;;;11.90;7.22;;;12.70;67.40;;;;;;5139516;27;20102;-33
2021/09/06 05:20:43;;;;;;;8.02;5.85;;;12.80;67.30;;;;;;5139185;27;20069;-33
2021/09/06 05:23:09;;;;;;;10.20;5.25;;;12.90;67.40;;;;;;5140004;27;20118;-32
2021/09/06 05:25:35;;;;;;;9.15;5.32;;;12.90;67.40;;;;;;5138844;27;20046;-32
2021/09/06 05:28:01;;;;;;;6.80;4.65;;;12.90;67.10;;;;;;5139455;27;20031;-32
2021/09/06 05:30:27;;;;;;;6.90;5.07;;;13.00;67.30;;;;;;5139178;27;20031;-32
2021/09/06 05:32:53;;;;;;;6.93;4.88;;;13.00;67.20;;;;;;5138097;27;20375;-32
2021/09/06 05:35:18;;;;;;;9.60;5.05;;;13.10;67.10;;;;;;5138991;27;20110;-32
2021/09/06 05:37:44;;;;;;;7.97;4.78;;;13.10;67.20;;;;;;5139219;27;20079;-33
2021/09/06 05:40:10;;;;;;;7.22;4.53;;;13.20;67.20;;;;;;5139085;27;20422;-32
2021/09/06 05:42:36;;;;;;;8.18;4.55;;;13.20;67.10;;;;;;5120274;27;20043;-32
2021/09/06 05:45:03;;;;;;;5.70;4.10;;;13.30;67.10;;;;;;5139051;27;20027;-33
2021/09/06 05:47:28;;;;;;;6.25;4.45;;;13.40;67.10;;;;;;5138896;27;20053;-33
2021/09/06 05:49:54;;;;;;;8.35;4.28;;;13.50;67.00;;;;;;5120616;27;20038;-32
2021/09/06 05:52:20;;;;;;;6.53;4.20;;;13.50;67.10;;;;;;5138711;27;20030;-32
2021/09/06 05:54:45;;;;;;;6.00;3.88;;;13.60;66.90;;;;;;5100601;28;20044;-34
2021/09/06 05:57:11;;;;;;;7.30;4.13;;;13.70;66.50;;;;;;5097647;28;20059;-34
2021/09/06 05:59:37;;;;;;;7.90;3.78;;;13.70;66.50;;;;;;5097662;28;20027;-33
2021/09/06 06:02:03;;;;;;;5.95;3.72;;;13.80;66.30;;;;;;5097367;28;20316;-34
2021/09/06 06:04:29;;;;;;;5.70;3.72;;;13.90;65.90;;;;;;5097366;28;20023;-34
2021/09/06 06:06:54;;;;;;;6.40;3.63;;;14.00;65.80;;;;;;5097229;28;20077;-34
2021/09/06 06:09:20;;;;;;;7.07;4.03;;;14.00;65.30;;;;;;5097845;28;20107;-32
2021/09/06 06:11:46;;;;;;;5.05;3.58;;;14.10;64.90;;;;;;5097637;28;20399;-34
2021/09/06 06:14:12;;;;;;;6.15;4.00;;;14.20;64.50;;;;;;5097852;28;20048;-34
2021/09/06 06:16:37;;;;;;;17.27;12.00;;;14.30;64.30;;;;;;5097352;28;20439;-33
2021/09/06 06:19:03;;;;;;;8.63;5.75;;;14.40;64.30;;;;;;5097171;28;20024;-33
2021/09/06 06:21:29;;;;;;;6.60;3.70;;;14.50;63.90;;;;;;5097504;28;20039;-33
2021/09/06 06:23:55;;;;;;;4.00;2.90;;;14.60;63.40;;;;;;5097487;28;20419;-33
2021/09/06 06:26:22;;;;;;;3.97;2.83;;;14.70;62.90;;;;;;5096990;28;20036;-33
2021/09/06 06:28:48;;;;;;;6.07;3.28;;;14.70;62.60;;;;;;5097413;28;20043;-33
2021/09/06 06:31:14;;;;;;;4.13;2.85;;;14.70;62.50;;;;;;5096748;28;20315;-34
2021/09/06 06:33:40;;;;;;;7.82;3.20;;;14.80;62.30;;;;;;5097770;28;20044;-33
2021/09/06 06:36:06;;;;;;;12.73;4.55;;;14.80;62.00;;;;;;5097298;28;20107;-33
2021/09/06 06:38:33;;;;;;;8.57;3.70;;;14.80;62.40;;;;;;5097186;28;20166;-33
2021/09/06 06:40:59;;;;;;;5.78;3.72;;;14.80;62.10;;;;;;5097081;28;20039;-33
2021/09/06 06:43:25;;;;;;;5.90;2.80;;;14.80;62.10;;;;;;5096955;28;20040;-33
2021/09/06 06:45:51;;;;;;;5.95;3.17;;;14.80;61.70;;;;;;5096916;28;20031;-33
2021/09/06 06:48:16;;;;;;;5.90;2.90;;;14.90;61.90;;;;;;5097099;28;20043;-33
2021/09/06 06:50:42;;;;;;;4.00;2.50;;;14.90;61.50;;;;;;5096348;28;20024;-34
2021/09/06 06:53:08;;;;;;;7.57;3.97;;;14.90;61.40;;;;;;5102313;27;20089;-34
2021/09/06 06:55:34;;;;;;;4.85;2.97;;;15.00;61.50;;;;;;5137569;27;20438;-33
2021/09/06 06:57:59;;;;;;;4.78;2.95;;;15.00;61.10;;;;;;5137953;27;20039;-31
2021/09/06 07:00:25;;;;;;;3.05;2.30;;;15.10;60.80;;;;;;5137592;27;20031;-33
2021/09/06 07:02:51;;;;;;;5.43;2.65;;;15.10;59.90;;;;;;5137284;27;20415;-32
2021/09/06 07:05:17;;;;;;;6.65;3.75;;;15.10;59.80;;;;;;5137685;27;20031;-33
2021/09/06 07:07:43;;;;;;;7.03;4.10;;;15.20;60.10;;;;;;5137541;27;20352;-33
2021/09/06 07:10:10;;;;;;;5.20;2.78;;;15.20;60.10;;;;;;5137520;27;20083;-33
2021/09/06 07:12:37;;;;;;;3.85;2.40;;;15.20;59.50;;;;;;5137088;27;20027;-32
2021/09/06 07:15:04;;;;;;;2.83;2.33;;;15.20;59.20;;;;;;5137358;27;20019;-33
2021/09/06 07:17:30;;;;;;;6.47;4.40;;;15.30;59.10;;;;;;5137184;27;20031;-33
2021/09/06 07:19:55;;;;;;;2.83;1.98;;;15.30;58.80;;;;;;5137563;27;20031;-38
2021/09/06 07:22:22;;;;;;;3.45;2.42;;;15.30;58.00;;;;;;5137208;27;20035;-33
2021/09/06 07:24:47;;;;;;;4.60;2.25;;;15.40;57.90;;;;;;5136971;27;20419;-33
2021/09/06 07:27:13;;;;;;;2.92;2.20;;;15.50;57.40;;;;;;5137291;27;20045;-34
2021/09/06 07:29:39;;;;;;;4.50;2.85;;;15.50;57.10;;;;;;5136914;27;20031;-34
2021/09/06 07:32:05;;;;;;;2.67;2.05;;;15.60;57.10;;;;;;5118371;27;20402;-34
2021/09/06 07:34:35;;;;;;;4.78;3.15;;;15.70;57.20;;;;;;5136851;27;20019;-33
2021/09/06 07:37:04;;;;;;;7.63;3.88;;;15.70;56.40;;;;;;5136821;27;20407;-32
2021/09/06 07:39:30;;;;;;;4.30;2.13;;;15.80;56.30;;;;;;5137002;27;20110;-33
2021/09/06 07:41:56;;;;;;;4.40;2.97;;;15.80;56.10;;;;;;5137032;27;20446;-33
2021/09/06 07:44:22;;;;;;;3.15;2.40;;;15.90;55.50;;;;;;5118538;27;20110;-34
2021/09/06 07:46:48;;;;;;;3.03;1.95;;;16.00;54.80;;;;;;5136678;27;20102;-34
2021/09/06 07:49:13;;;;;;;3.63;1.70;;;16.00;54.90;;;;;;5118611;27;20034;-34
2021/09/06 07:51:39;;;;;;;2.20;1.63;;;16.10;54.00;;;;;;5136285;27;20070;-33
2021/09/06 07:54:06;;;;;;;3.83;2.30;;;16.10;53.00;;;;;;5136262;27;20050;-33
2021/09/06 07:56:32;;;;;;;3.20;2.28;;;16.10;52.70;;;;;;5115600;28;20023;-33
2021/09/06 07:58:58;;;;;;;4.30;2.95;;;16.20;52.20;;;;;;5116060;28;20288;-33
2021/09/06 08:01:24;;;;;;;2.08;1.80;;;16.20;52.80;;;;;;5115756;28;20048;-33
2021/09/06 08:03:50;;;;;;;4.10;1.70;;;16.30;52.80;;;;;;5116313;28;20023;-33
2021/09/06 08:06:15;;;;;;;3.88;2.42;;;16.30;52.50;;;;;;5116188;28;20030;-33
2021/09/06 08:08:41;;;;;;;3.60;2.13;;;16.40;52.60;;;;;;5116324;28;20047;-33
2021/09/06 08:11:07;;;;;;;4.22;2.30;;;16.40;52.70;;;;;;5115734;28;20035;-33
2021/09/06 08:13:32;;;;;;;3.90;1.77;;;16.40;52.40;;;;;;5116223;28;20028;-33
2021/09/06 08:15:58;;;;;;;4.57;1.80;;;16.50;51.80;;;;;;5115661;28;20034;-33
2021/09/06 08:18:24;;;;;;;4.15;2.28;;;16.50;50.80;;;;;;5116044;28;20396;-33
2021/09/06 08:20:50;;;;;;;3.63;2.10;;;16.50;50.30;;;;;;5097690;28;20036;-33
2021/09/06 08:23:15;;;;;;;2.47;1.73;;;16.50;49.80;;;;;;5116231;28;20063;-33
2021/09/06 08:25:41;;;;;;;3.92;1.70;;;16.60;49.50;;;;;;5115431;28;20307;-33
2021/09/06 08:28:07;;;;;;;4.47;1.92;;;16.60;49.70;;;;;;5116315;28;20038;-33
2021/09/06 08:30:33;;;;;;;2.85;1.80;;;16.60;50.20;;;;;;5114983;28;20461;-33
2021/09/06 08:32:59;;;;;;;2.95;1.52;;;16.60;49.00;;;;;;5115895;28;20031;-34
2021/09/06 08:35:25;;;;;;;4.55;1.73;;;16.60;48.80;;;;;;5114700;28;20426;-34
2021/09/06 08:37:50;;;;;;;33.22;25.02;;;16.60;48.00;;;;;;5134116;28;20102;-34
2021/09/06 08:40:16;;;;;;;9.10;6.13;;;16.60;48.50;;;;;;5136126;28;20038;-33
2021/09/06 08:42:42;;;;;;;13.18;9.60;;;16.70;48.60;;;;;;5135564;28;20038;-33
2021/09/06 08:45:10;;;;;;;10.43;5.57;;;16.70;49.10;;;;;;5136135;28;20437;-33
2021/09/06 08:47:36;;;;;;;4.38;2.50;;;16.70;48.60;;;;;;5135601;28;20133;-33
2021/09/06 08:50:06;;;;;;;6.90;4.93;;;16.80;48.60;;;;;;5135781;28;20031;-33
2021/09/06 08:52:31;;;;;;;7.65;3.78;;;16.90;48.20;;;;;;5135303;28;20415;-33
2021/09/06 08:54:57;;;;;;;9.40;4.43;;;17.00;48.60;;;;;;5135746;28;20071;-32
2021/09/06 08:57:22;;;;;;;4.90;3.20;;;17.00;48.70;;;;;;5135336;28;20031;-33
2021/09/06 08:59:58;;;;;;;4.85;2.47;;;17.10;48.60;;;;;;5135908;28;20023;-33
2021/09/06 09:02:24;;;;;;;3.95;2.40;;;17.20;48.10;;;;;;5135206;28;20038;-33
2021/09/06 09:05:06;;;;;;;2.58;1.80;;;17.30;48.20;;;;;;5135568;28;20019;-33
2021/09/06 09:07:33;;;;;;;3.22;1.95;;;17.40;47.80;;;;;;5138774;27;20035;-33
2021/09/06 09:09:59;;;;;;;3.22;2.40;;;17.40;47.70;;;;;;5139512;27;20033;-33
2021/09/06 09:12:26;;;;;;;3.40;1.85;;;17.50;47.90;;;;;;5139158;27;20033;-34
2021/09/06 09:15:00;;;;;;;3.22;2.28;;;17.60;47.10;;;;;;5139334;27;20106;-34
2021/09/06 09:17:26;;;;;;;4.15;2.58;;;17.70;46.70;;;;;;5138840;27;20051;-33
2021/09/06 09:19:53;;;;;;;5.05;2.85;;;17.80;47.20;;;;;;5139309;27;20364;-34
2021/09/06 09:22:29;;;;;;;5.30;2.92;;;17.90;47.20;;;;;;5138832;27;20300;-33
2021/09/06 09:25:03;;;;;;;3.42;1.77;;;18.00;46.40;;;;;;5139295;27;20023;-34
2021/09/06 09:27:34;;;;;;;4.10;2.38;;;18.10;46.40;;;;;;5138479;27;20088;-33
2021/09/06 09:30:01;;;;;;;3.95;2.67;;;18.10;45.20;;;;;;5138851;27;20114;-35
2021/09/06 09:32:27;;;;;;;3.22;1.67;;;18.20;45.80;;;;;;5139399;27;20096;-33
2021/09/06 09:34:53;;;;;;;7.68;2.47;;;18.20;45.90;;;;;;5139317;27;20020;-32
2021/09/06 09:37:27;;;;;;;6.90;2.45;;;18.30;45.70;;;;;;5138905;27;20037;-33
2021/09/06 09:39:58;;;;;;;9.45;3.20;;;18.30;44.80;;;;;;5139390;27;20365;-34
2021/09/06 09:42:24;;;;;;;7.15;2.00;;;18.30;44.40;;;;;;5139185;27;20038;-34
2021/09/06 09:44:56;;;;;;;2.70;1.85;;;18.30;44.00;;;;;;5139252;27;20239;-35
2021/09/06 09:47:24;;;;;;;2.83;2.25;;;18.40;44.10;;;;;;5138997;27;20034;-34
2021/09/06 09:49:51;;;;;;;6.20;2.47;;;18.40;44.60;;;;;;5138884;27;20031;-35
2021/09/06 09:52:19;;;;;;;2.55;2.03;;;18.40;45.10;;;;;;5138083;27;20031;-34
2021/09/06 09:54:52;;;;;;;7.68;2.60;;;18.50;45.00;;;;;;5138407;27;20043;-33
2021/09/06 09:57:18;;;;;;;3.05;1.73;;;18.50;44.70;;;;;;5138853;27;20023;-33
2021/09/06 09:59:44;;;;;;;3.08;2.13;;;18.50;45.00;;;;;;5138874;27;20024;-34
2021/09/06 10:02:12;;;;;;;2.88;1.80;;;18.60;45.00;;;;;;5138753;27;20035;-34
2021/09/06 10:04:53;;;;;;;3.05;1.80;;;18.60;44.70;;;;;;5138921;27;20352;-34
2021/09/06 10:07:21;;;;;;;4.32;1.75;;;18.60;44.60;;;;;;5138754;27;20457;-34
2021/09/06 10:09:48;;;;;;;3.75;2.25;;;18.70;44.40;;;;;;5138396;27;20023;-33
2021/09/06 10:12:21;;;;;;;4.60;2.10;;;18.70;45.10;;;;;;5138487;27;20475;-34
2021/09/06 10:14:56;;;;;;;3.67;1.48;;;18.80;45.20;;;;;;5138361;27;20410;-34
2021/09/06 10:17:47;;;;;;;2.75;1.73;;;18.90;42.80;;;;;;5137695;27;20106;-34
2021/09/06 10:20:12;;;;;;;1.52;1.40;;;18.90;42.20;;;;;;5138776;27;20031;-34
2021/09/06 10:22:40;;;;;;;3.90;1.77;;;18.90;42.40;;;;;;5138333;27;20042;-33
2021/09/06 10:25:09;;;;;;;2.20;1.67;;;19.00;42.80;;;;;;5138590;27;20046;-34
2021/09/06 10:27:37;;;;;;;5.30;2.10;;;18.90;42.80;;;;;;5119517;27;20035;-32
2021/09/06 10:30:09;;;;;;;4.00;1.50;;;19.00;42.60;;;;;;5138383;27;20034;-33
2021/09/06 10:32:45;;;;;;;6.25;2.08;;;19.00;42.50;;;;;;5137789;27;20039;-34
2021/09/06 10:35:16;;;;;;;5.68;2.55;;;18.90;42.90;;;;;;5120056;27;20019;-33
2021/09/06 10:37:43;;;;;;;4.82;1.77;;;18.90;42.50;;;;;;5138272;27;20423;-35
2021/09/06 10:40:12;;;;;;;2.58;1.70;;;18.90;42.70;;;;;;5137950;27;20031;-34
2021/09/06 10:42:40;;;;;;;3.03;2.13;;;18.90;42.70;;;;;;5137863;27;20050;-33
2021/09/06 10:45:07;;;;;;;2.42;1.80;;;18.90;42.20;;;;;;5137868;27;20020;-33
2021/09/06 10:47:40;;;;;;;6.43;2.15;;;18.90;42.80;;;;;;5137576;27;20403;-32
2021/09/06 10:50:21;;;;;;;6.00;1.83;;;18.90;43.50;;;;;;5137917;27;20031;-33
2021/09/06 10:52:48;;;;;;;;;;;18.90;42.20;;;;;;5137803;27;20449;-33
2021/09/06 10:55:16;;;;;;;3.63;1.45;;;19.00;43.20;;;;;;5137458;27;19915;-33
2021/09/06 10:57:43;;;;;;;3.65;2.22;;;19.10;42.90;;;;;;5137601;27;20031;-34
2021/09/06 11:00:18;;;;;;;2.47;1.85;;;19.20;42.40;;;;;;5137529;27;20063;-33
2021/09/06 11:02:44;;;;;;;2.55;1.65;;;19.30;41.90;;;;;;5136919;27;20043;-34
2021/09/06 11:05:20;;;;;;;1.48;1.25;;;19.40;42.00;;;;;;5137652;27;20368;-34
2021/09/06 11:07:47;;;;;;;7.90;2.13;;;19.50;41.30;;;;;;5137516;27;20044;-34
2021/09/06 11:10:19;;;;;;;5.15;2.20;;;19.60;41.50;;;;;;5137584;27;20027;-33
2021/09/06 11:12:56;;;;;;;5.05;2.83;;;19.70;40.90;;;;;;5137254;27;20352;-34
2021/09/06 11:15:27;;;;;;;3.08;1.90;;;19.70;41.20;;;;;;5136989;27;20022;-34
2021/09/06 11:17:59;;;;;;;3.33;1.88;;;19.80;39.50;;;;;;5137434;27;20539;-34
2021/09/06 11:20:26;;;;;;;2.22;1.73;;;19.80;40.00;;;;;;5136793;27;20042;-34
2021/09/06 11:22:52;;;;;;;6.32;1.90;;;19.80;39.50;;;;;;5137291;27;20046;-34
2021/09/06 11:25:26;;;;;;;7.10;2.10;;;19.90;40.40;;;;;;5137042;27;20029;-34
2021/09/06 11:27:53;;;;;;;10.85;3.80;;;20.00;40.00;;;;;;5137438;27;20055;-34
2021/09/06 11:30:23;;;;;;;5.10;2.72;;;20.10;40.40;;;;;;5136932;27;20323;-34
2021/09/06 11:32:50;;;;;;;7.13;2.78;;;20.10;39.80;;;;;;5136947;27;20079;-34
2021/09/06 11:35:19;;;;;;;10.95;3.47;;;20.10;39.30;;;;;;5136810;27;20019;-34
2021/09/06 11:37:45;;;;;;;7.50;2.15;;;20.00;39.40;;;;;;5136689;27;20034;-34
2021/09/06 11:40:12;;;;;;;6.97;2.10;;;20.00;39.00;;;;;;5136777;27;20023;-33
2021/09/06 11:42:38;;;;;;;4.05;1.90;;;20.00;38.70;;;;;;5136579;27;20076;-34
2021/09/06 11:45:06;;;;;;;3.38;1.85;;;19.90;38.70;;;;;;5136999;27;20027;-34
2021/09/06 11:47:32;;;;;;;4.50;2.70;;;19.90;38.90;;;;;;5136560;27;20037;-33
2021/09/06 11:49:59;;;;;;;7.10;3.05;;;19.90;38.60;;;;;;5136921;27;20034;-33
2021/09/06 11:52:36;;;;;;;8.07;4.03;;;19.90;38.60;;;;;;5136505;27;20110;-33
2021/09/06 11:55:04;;;;;;;11.63;5.43;;;19.90;38.00;;;;;;5136371;27;20039;-32
2021/09/06 11:57:34;;;;;;;5.95;2.67;;;19.90;38.30;;;;;;5136431;27;20035;-32
2021/09/06 12:00:00;;;;;;;8.63;4.05;;;19.90;37.70;;;;;;5136498;27;20023;-33
2021/09/06 12:02:26;;;;;;;8.25;2.90;;;19.80;38.40;;;;;;5136523;27;20047;-34
2021/09/06 12:05:06;;;;;;;7.60;2.40;;;19.70;38.40;;;;;;5136579;27;20450;-33
2021/09/06 12:07:34;;;;;;;3.47;1.88;;;19.70;39.00;;;;;;5136629;27;20414;-32
2021/09/06 12:10:00;;;;;;;9.60;2.28;;;19.60;39.60;;;;;;5136626;27;20075;-33
2021/09/06 12:12:26;;;;;;;7.90;2.72;;;19.50;39.30;;;;;;5136030;28;20036;-33
2021/09/06 12:14:53;;;;;;;3.70;2.17;;;19.50;39.30;;;;;;5136265;28;20027;-34
2021/09/06 12:17:20;;;;;;;4.72;2.30;;;19.40;40.60;;;;;;5136388;28;20024;-32
2021/09/06 12:19:50;;;;;;;4.75;2.03;;;19.30;40.60;;;;;;5136465;28;20019;-32
2021/09/06 12:22:21;;;;;;;5.53;2.00;;;19.30;40.80;;;;;;5136125;28;20042;-33
2021/09/06 12:24:48;;;;;;;3.28;1.80;;;19.20;41.50;;;;;;5136187;28;20024;-33
2021/09/06 12:27:17;;;;;;;3.75;2.33;;;19.20;41.70;;;;;;5136120;28;20076;-34
2021/09/06 12:29:44;;;;;;;5.38;2.22;;;19.10;41.20;;;;;;5135936;28;20027;-33
2021/09/06 12:32:18;;;;;;;5.40;2.38;;;19.10;41.80;;;;;;5135952;28;20030;-33
2021/09/06 12:34:44;;;;;;;4.95;2.33;;;19.00;41.20;;;;;;5136102;28;20062;-33
2021/09/06 12:37:14;;;;;;;20.40;3.95;;;19.00;41.20;;;;;;5136280;28;20119;-33
2021/09/06 12:39:40;;;;;;;6.38;2.25;;;18.90;41.50;;;;;;5135897;28;20458;-33
2021/09/06 12:42:06;;;;;;;3.38;1.58;;;18.90;41.50;;;;;;5139024;27;20266;-34
2021/09/06 12:44:33;;;;;;;8.13;2.33;;;18.80;40.80;;;;;;5140170;27;20107;-34